sensor_id;sensor_type;location;lat;lon;timestamp;P1;durP1;ratioP1;P2;durP2;ratioP2
72939;SDS011;61094;51.154;13.570;2023-08-07T00:04:04;5.85;;;2.45;;
72939;SDS011;61094;51.154;13.570;2023-08-07T00:09:06;5.07;;;2.17;;
72939;SDS011;61094;51.154;13.570;2023-08-07T00:14:08;6.28;;;2.70;;
72939;SDS011;61094;51.154;13.570;2023-08-07T00:19:11;7.03;;;2.47;;
72939;SDS011;61094;51.154;13.570;2023-08-07T00:24:13;8.30;;;2.58;;
72939;SDS011;61094;51.154;13.570;2023-08-07T00:29:14;4.82;;;2.22;;
72939;SDS011;61094;51.154;13.570;2023-08-07T00:34:17;6.45;;;2.47;;
72939;SDS011;61094;51.154;13.570;2023-08-07T00:39:19;5.55;;;2.05;;
72939;SDS011;61094;51.154;13.570;2023-08-07T00:44:21;6.57;;;2.45;;
72939;SDS011;61094;51.154;13.570;2023-08-07T00:49:25;5.80;;;2.85;;
72939;SDS011;61094;51.154;13.570;2023-08-07T00:54:29;5.82;;;2.38;;
72939;SDS011;61094;51.154;13.570;2023-08-07T00:59:31;5.15;;;2.20;;
72939;SDS011;61094;51.154;13.570;2023-08-07T01:09:37;5.45;;;2.08;;
72939;SDS011;61094;51.154;13.570;2023-08-07T01:14:40;4.70;;;1.70;;
72939;SDS011;61094;51.154;13.570;2023-08-07T01:19:51;5.30;;;1.95;;
72939;SDS011;61094;51.154;13.570;2023-08-07T01:24:54;3.88;;;1.50;;
72939;SDS011;61094;51.154;13.570;2023-08-07T01:29:59;3.95;;;1.65;;
72939;SDS011;61094;51.154;13.570;2023-08-07T01:35:11;5.63;;;2.05;;
72939;SDS011;61094;51.154;13.570;2023-08-07T01:40:16;7.20;;;2.47;;
72939;SDS011;61094;51.154;13.570;2023-08-07T01:45:22;7.95;;;2.67;;
72939;SDS011;61094;51.154;13.570;2023-08-07T01:50:24;7.65;;;3.35;;
72939;SDS011;61094;51.154;13.570;2023-08-07T01:55:27;6.28;;;2.70;;
72939;SDS011;61094;51.154;13.570;2023-08-07T02:00:29;7.25;;;2.72;;
72939;SDS011;61094;51.154;13.570;2023-08-07T02:05:31;7.00;;;3.38;;
72939;SDS011;61094;51.154;13.570;2023-08-07T02:10:34;7.75;;;3.20;;
72939;SDS011;61094;51.154;13.570;2023-08-07T02:15:36;6.32;;;3.17;;
72939;SDS011;61094;51.154;13.570;2023-08-07T02:20:38;7.88;;;2.90;;
72939;SDS011;61094;51.154;13.570;2023-08-07T02:25:41;6.47;;;2.85;;
72939;SDS011;61094;51.154;13.570;2023-08-07T02:30:44;7.05;;;3.20;;
72939;SDS011;61094;51.154;13.570;2023-08-07T02:35:48;10.95;;;3.50;;
72939;SDS011;61094;51.154;13.570;2023-08-07T02:40:52;6.30;;;3.35;;
72939;SDS011;61094;51.154;13.570;2023-08-07T02:45:54;6.65;;;2.97;;
72939;SDS011;61094;51.154;13.570;2023-08-07T02:50:56;7.03;;;3.13;;
72939;SDS011;61094;51.154;13.570;2023-08-07T02:55:59;4.75;;;1.92;;
72939;SDS011;61094;51.154;13.570;2023-08-07T03:01:02;5.90;;;1.88;;
72939;SDS011;61094;51.154;13.570;2023-08-07T03:06:05;5.82;;;1.83;;
72939;SDS011;61094;51.154;13.570;2023-08-07T03:11:08;4.20;;;1.63;;
72939;SDS011;61094;51.154;13.570;2023-08-07T03:16:10;4.85;;;1.58;;
72939;SDS011;61094;51.154;13.570;2023-08-07T03:21:12;4.15;;;1.70;;
72939;SDS011;61094;51.154;13.570;2023-08-07T03:31:18;5.65;;;2.05;;
72939;SDS011;61094;51.154;13.570;2023-08-07T03:36:21;4.95;;;1.65;;
72939;SDS011;61094;51.154;13.570;2023-08-07T03:41:24;7.32;;;1.90;;
72939;SDS011;61094;51.154;13.570;2023-08-07T03:46:27;4.93;;;1.85;;
72939;SDS011;61094;51.154;13.570;2023-08-07T03:51:28;5.35;;;1.75;;
72939;SDS011;61094;51.154;13.570;2023-08-07T03:56:33;4.80;;;1.88;;
72939;SDS011;61094;51.154;13.570;2023-08-07T04:01:38;6.47;;;2.45;;
72939;SDS011;61094;51.154;13.570;2023-08-07T04:06:40;6.18;;;2.55;;
72939;SDS011;61094;51.154;13.570;2023-08-07T04:16:46;5.97;;;2.78;;
72939;SDS011;61094;51.154;13.570;2023-08-07T04:21:48;9.05;;;3.60;;
72939;SDS011;61094;51.154;13.570;2023-08-07T04:26:52;8.82;;;4.13;;
72939;SDS011;61094;51.154;13.570;2023-08-07T04:31:54;10.25;;;4.20;;
72939;SDS011;61094;51.154;13.570;2023-08-07T04:36:56;9.85;;;4.60;;
72939;SDS011;61094;51.154;13.570;2023-08-07T04:41:59;8.68;;;4.07;;
72939;SDS011;61094;51.154;13.570;2023-08-07T04:47:01;10.18;;;4.40;;
72939;SDS011;61094;51.154;13.570;2023-08-07T04:52:03;9.30;;;4.05;;
72939;SDS011;61094;51.154;13.570;2023-08-07T04:57:06;10.45;;;4.63;;
72939;SDS011;61094;51.154;13.570;2023-08-07T05:02:08;10.77;;;3.88;;
72939;SDS011;61094;51.154;13.570;2023-08-07T05:07:10;9.25;;;3.80;;
72939;SDS011;61094;51.154;13.570;2023-08-07T05:12:13;9.98;;;4.35;;
72939;SDS011;61094;51.154;13.570;2023-08-07T05:17:15;10.45;;;4.40;;
72939;SDS011;61094;51.154;13.570;2023-08-07T05:22:17;10.95;;;4.38;;
72939;SDS011;61094;51.154;13.570;2023-08-07T05:27:20;10.35;;;4.45;;
72939;SDS011;61094;51.154;13.570;2023-08-07T05:32:22;8.25;;;4.00;;
72939;SDS011;61094;51.154;13.570;2023-08-07T05:37:24;9.98;;;4.43;;
72939;SDS011;61094;51.154;13.570;2023-08-07T05:47:30;8.57;;;3.30;;
72939;SDS011;61094;51.154;13.570;2023-08-07T05:52:33;8.00;;;3.35;;
72939;SDS011;61094;51.154;13.570;2023-08-07T05:57:36;7.57;;;2.88;;
72939;SDS011;61094;51.154;13.570;2023-08-07T06:02:38;9.82;;;3.53;;
72939;SDS011;61094;51.154;13.570;2023-08-07T06:07:39;7.85;;;3.30;;
72939;SDS011;61094;51.154;13.570;2023-08-07T06:12:43;6.68;;;2.90;;
72939;SDS011;61094;51.154;13.570;2023-08-07T06:17:44;7.50;;;3.35;;
72939;SDS011;61094;51.154;13.570;2023-08-07T06:22:46;6.80;;;2.97;;
72939;SDS011;61094;51.154;13.570;2023-08-07T06:27:49;6.55;;;2.95;;
72939;SDS011;61094;51.154;13.570;2023-08-07T06:32:51;6.18;;;2.88;;
72939;SDS011;61094;51.154;13.570;2023-08-07T06:37:53;8.00;;;2.92;;
72939;SDS011;61094;51.154;13.570;2023-08-07T06:42:56;5.85;;;2.63;;
72939;SDS011;61094;51.154;13.570;2023-08-07T06:47:58;5.30;;;2.47;;
72939;SDS011;61094;51.154;13.570;2023-08-07T06:53:00;4.93;;;1.90;;
72939;SDS011;61094;51.154;13.570;2023-08-07T06:58:03;5.05;;;2.10;;
72939;SDS011;61094;51.154;13.570;2023-08-07T07:03:04;6.65;;;2.10;;
72939;SDS011;61094;51.154;13.570;2023-08-07T07:08:07;8.57;;;2.10;;
72939;SDS011;61094;51.154;13.570;2023-08-07T07:13:10;7.07;;;1.95;;
72939;SDS011;61094;51.154;13.570;2023-08-07T07:18:12;5.45;;;1.90;;
72939;SDS011;61094;51.154;13.570;2023-08-07T07:23:14;4.78;;;2.00;;
72939;SDS011;61094;51.154;13.570;2023-08-07T07:28:17;5.13;;;1.58;;
72939;SDS011;61094;51.154;13.570;2023-08-07T07:33:19;5.60;;;1.65;;
72939;SDS011;61094;51.154;13.570;2023-08-07T07:38:21;2.60;;;1.13;;
72939;SDS011;61094;51.154;13.570;2023-08-07T07:43:24;2.17;;;1.00;;
72939;SDS011;61094;51.154;13.570;2023-08-07T07:48:26;3.63;;;1.55;;
72939;SDS011;61094;51.154;13.570;2023-08-07T07:53:27;3.05;;;1.05;;
72939;SDS011;61094;51.154;13.570;2023-08-07T07:58:31;3.15;;;1.20;;
72939;SDS011;61094;51.154;13.570;2023-08-07T08:03:32;3.50;;;1.25;;
72939;SDS011;61094;51.154;13.570;2023-08-07T08:08:35;2.20;;;0.80;;
72939;SDS011;61094;51.154;13.570;2023-08-07T08:13:38;2.05;;;0.90;;
72939;SDS011;61094;51.154;13.570;2023-08-07T08:18:41;1.92;;;0.68;;
72939;SDS011;61094;51.154;13.570;2023-08-07T08:23:43;2.05;;;0.82;;
72939;SDS011;61094;51.154;13.570;2023-08-07T08:28:46;3.15;;;0.85;;
72939;SDS011;61094;51.154;13.570;2023-08-07T08:33:47;3.00;;;0.93;;
72939;SDS011;61094;51.154;13.570;2023-08-07T08:38:49;2.55;;;1.00;;
72939;SDS011;61094;51.154;13.570;2023-08-07T08:43:53;2.55;;;0.80;;
72939;SDS011;61094;51.154;13.570;2023-08-07T08:48:57;2.10;;;0.75;;
72939;SDS011;61094;51.154;13.570;2023-08-07T08:59:03;2.80;;;0.77;;
72939;SDS011;61094;51.154;13.570;2023-08-07T09:04:05;3.60;;;0.90;;
72939;SDS011;61094;51.154;13.570;2023-08-07T09:09:07;1.75;;;0.73;;
72939;SDS011;61094;51.154;13.570;2023-08-07T09:14:11;2.55;;;0.80;;
72939;SDS011;61094;51.154;13.570;2023-08-07T09:19:17;2.00;;;0.88;;
72939;SDS011;61094;51.154;13.570;2023-08-07T09:24:19;2.90;;;0.80;;
72939;SDS011;61094;51.154;13.570;2023-08-07T09:29:24;2.00;;;0.70;;
72939;SDS011;61094;51.154;13.570;2023-08-07T09:34:25;2.92;;;0.88;;
72939;SDS011;61094;51.154;13.570;2023-08-07T09:39:27;3.75;;;0.65;;
72939;SDS011;61094;51.154;13.570;2023-08-07T09:44:36;1.08;;;0.40;;
72939;SDS011;61094;51.154;13.570;2023-08-07T09:49:38;2.92;;;0.70;;
72939;SDS011;61094;51.154;13.570;2023-08-07T09:54:40;2.30;;;0.52;;
72939;SDS011;61094;51.154;13.570;2023-08-07T09:59:44;0.95;;;0.38;;
72939;SDS011;61094;51.154;13.570;2023-08-07T10:09:54;1.33;;;0.60;;
72939;SDS011;61094;51.154;13.570;2023-08-07T10:14:57;3.80;;;0.85;;
72939;SDS011;61094;51.154;13.570;2023-08-07T10:20:00;1.15;;;0.47;;
72939;SDS011;61094;51.154;13.570;2023-08-07T10:25:03;1.58;;;0.60;;
72939;SDS011;61094;51.154;13.570;2023-08-07T10:30:09;2.90;;;0.90;;
72939;SDS011;61094;51.154;13.570;2023-08-07T10:35:22;2.40;;;0.82;;
72939;SDS011;61094;51.154;13.570;2023-08-07T10:40:25;1.75;;;0.50;;
72939;SDS011;61094;51.154;13.570;2023-08-07T10:45:28;0.90;;;0.38;;
72939;SDS011;61094;51.154;13.570;2023-08-07T10:50:30;1.85;;;0.70;;
72939;SDS011;61094;51.154;13.570;2023-08-07T10:55:42;2.22;;;0.73;;
72939;SDS011;61094;51.154;13.570;2023-08-07T11:00:47;0.93;;;0.55;;
72939;SDS011;61094;51.154;13.570;2023-08-07T11:05:48;1.45;;;0.52;;
72939;SDS011;61094;51.154;13.570;2023-08-07T11:10:50;0.93;;;0.50;;
72939;SDS011;61094;51.154;13.570;2023-08-07T11:15:54;3.40;;;0.60;;
72939;SDS011;61094;51.154;13.570;2023-08-07T11:20:56;2.60;;;0.70;;
72939;SDS011;61094;51.154;13.570;2023-08-07T11:25:58;2.00;;;0.60;;
72939;SDS011;61094;51.154;13.570;2023-08-07T11:31:01;2.42;;;0.65;;
72939;SDS011;61094;51.154;13.570;2023-08-07T11:36:03;2.03;;;0.68;;
72939;SDS011;61094;51.154;13.570;2023-08-07T11:41:12;3.60;;;0.77;;
72939;SDS011;61094;51.154;13.570;2023-08-07T11:46:17;2.38;;;0.77;;
72939;SDS011;61094;51.154;13.570;2023-08-07T11:51:18;2.95;;;0.70;;
72939;SDS011;61094;51.154;13.570;2023-08-07T12:01:25;1.55;;;0.68;;
72939;SDS011;61094;51.154;13.570;2023-08-07T12:06:28;2.05;;;0.60;;
72939;SDS011;61094;51.154;13.570;2023-08-07T12:11:29;2.22;;;0.55;;
72939;SDS011;61094;51.154;13.570;2023-08-07T12:16:33;1.38;;;0.50;;
72939;SDS011;61094;51.154;13.570;2023-08-07T12:21:36;2.60;;;0.50;;
72939;SDS011;61094;51.154;13.570;2023-08-07T12:26:39;0.55;;;0.40;;
72939;SDS011;61094;51.154;13.570;2023-08-07T12:31:42;1.15;;;0.52;;
72939;SDS011;61094;51.154;13.570;2023-08-07T12:36:44;1.40;;;0.43;;
72939;SDS011;61094;51.154;13.570;2023-08-07T12:41:47;1.98;;;0.40;;
72939;SDS011;61094;51.154;13.570;2023-08-07T12:46:51;3.33;;;0.50;;
72939;SDS011;61094;51.154;13.570;2023-08-07T12:51:52;1.55;;;0.50;;
72939;SDS011;61094;51.154;13.570;2023-08-07T12:56:56;0.90;;;0.35;;
72939;SDS011;61094;51.154;13.570;2023-08-07T13:02:00;2.72;;;0.60;;
72939;SDS011;61094;51.154;13.570;2023-08-07T13:07:02;3.20;;;0.60;;
72939;SDS011;61094;51.154;13.570;2023-08-07T13:12:04;9.60;;;4.07;;
72939;SDS011;61094;51.154;13.570;2023-08-07T13:17:07;0.93;;;0.28;;
72939;SDS011;61094;51.154;13.570;2023-08-07T13:22:09;0.65;;;0.20;;
72939;SDS011;61094;51.154;13.570;2023-08-07T13:27:11;1.02;;;0.20;;
72939;SDS011;61094;51.154;13.570;2023-08-07T13:32:14;1.55;;;0.40;;
72939;SDS011;61094;51.154;13.570;2023-08-07T13:37:18;1.35;;;0.32;;
72939;SDS011;61094;51.154;13.570;2023-08-07T13:42:20;2.17;;;0.30;;
72939;SDS011;61094;51.154;13.570;2023-08-07T13:47:25;1.20;;;0.57;;
72939;SDS011;61094;51.154;13.570;2023-08-07T13:52:27;4.97;;;1.60;;
72939;SDS011;61094;51.154;13.570;2023-08-07T13:57:29;1.15;;;0.43;;
72939;SDS011;61094;51.154;13.570;2023-08-07T14:02:32;1.08;;;0.40;;
72939;SDS011;61094;51.154;13.570;2023-08-07T14:07:35;0.77;;;0.25;;
72939;SDS011;61094;51.154;13.570;2023-08-07T14:12:37;1.90;;;0.40;;
72939;SDS011;61094;51.154;13.570;2023-08-07T14:17:40;2.70;;;0.60;;
72939;SDS011;61094;51.154;13.570;2023-08-07T14:22:42;3.88;;;1.20;;
72939;SDS011;61094;51.154;13.570;2023-08-07T14:27:44;4.45;;;1.25;;
72939;SDS011;61094;51.154;13.570;2023-08-07T14:32:47;2.13;;;0.43;;
72939;SDS011;61094;51.154;13.570;2023-08-07T14:37:50;1.08;;;0.35;;
72939;SDS011;61094;51.154;13.570;2023-08-07T14:42:51;1.23;;;0.43;;
72939;SDS011;61094;51.154;13.570;2023-08-07T14:47:55;0.85;;;0.40;;
72939;SDS011;61094;51.154;13.570;2023-08-07T14:52:57;0.73;;;0.30;;
72939;SDS011;61094;51.154;13.570;2023-08-07T14:57:59;1.70;;;0.50;;
72939;SDS011;61094;51.154;13.570;2023-08-07T15:03:02;1.75;;;0.50;;
72939;SDS011;61094;51.154;13.570;2023-08-07T15:08:04;1.13;;;0.50;;
72939;SDS011;61094;51.154;13.570;2023-08-07T15:13:06;2.00;;;0.68;;
72939;SDS011;61094;51.154;13.570;2023-08-07T15:18:09;1.40;;;0.43;;
72939;SDS011;61094;51.154;13.570;2023-08-07T15:23:11;0.80;;;0.28;;
72939;SDS011;61094;51.154;13.570;2023-08-07T15:28:14;1.67;;;0.50;;
72939;SDS011;61094;51.154;13.570;2023-08-07T15:33:17;1.33;;;0.50;;
72939;SDS011;61094;51.154;13.570;2023-08-07T15:38:19;0.20;;;0.10;;
72939;SDS011;61094;51.154;13.570;2023-08-07T15:43:21;0.50;;;0.30;;
72939;SDS011;61094;51.154;13.570;2023-08-07T15:48:24;1.65;;;0.45;;
72939;SDS011;61094;51.154;13.570;2023-08-07T15:53:26;0.93;;;0.38;;
72939;SDS011;61094;51.154;13.570;2023-08-07T15:58:28;1.02;;;0.30;;
72939;SDS011;61094;51.154;13.570;2023-08-07T16:03:31;1.40;;;0.38;;
72939;SDS011;61094;51.154;13.570;2023-08-07T16:08:36;1.50;;;0.50;;
72939;SDS011;61094;51.154;13.570;2023-08-07T16:13:37;1.73;;;0.63;;
72939;SDS011;61094;51.154;13.570;2023-08-07T16:18:41;4.70;;;0.75;;
72939;SDS011;61094;51.154;13.570;2023-08-07T16:23:42;2.10;;;0.60;;
72939;SDS011;61094;51.154;13.570;2023-08-07T16:28:44;4.32;;;0.85;;
72939;SDS011;61094;51.154;13.570;2023-08-07T16:33:48;3.22;;;0.95;;
72939;SDS011;61094;51.154;13.570;2023-08-07T16:38:49;3.42;;;0.45;;
72939;SDS011;61094;51.154;13.570;2023-08-07T16:43:52;5.13;;;1.23;;
72939;SDS011;61094;51.154;13.570;2023-08-07T16:48:55;1.58;;;0.50;;
72939;SDS011;61094;51.154;13.570;2023-08-07T16:53:57;2.78;;;0.82;;
72939;SDS011;61094;51.154;13.570;2023-08-07T16:58:58;2.15;;;1.05;;
72939;SDS011;61094;51.154;13.570;2023-08-07T17:04:03;1.92;;;0.68;;
72939;SDS011;61094;51.154;13.570;2023-08-07T17:09:05;3.53;;;1.08;;
72939;SDS011;61094;51.154;13.570;2023-08-07T17:14:06;4.68;;;0.95;;
72939;SDS011;61094;51.154;13.570;2023-08-07T17:19:10;2.33;;;0.50;;
72939;SDS011;61094;51.154;13.570;2023-08-07T17:24:11;5.53;;;1.08;;
72939;SDS011;61094;51.154;13.570;2023-08-07T17:29:13;4.13;;;1.00;;
72939;SDS011;61094;51.154;13.570;2023-08-07T17:34:16;3.72;;;0.80;;
72939;SDS011;61094;51.154;13.570;2023-08-07T17:39:18;2.63;;;0.82;;
72939;SDS011;61094;51.154;13.570;2023-08-07T17:44:20;5.22;;;0.80;;
72939;SDS011;61094;51.154;13.570;2023-08-07T17:49:23;4.45;;;0.90;;
72939;SDS011;61094;51.154;13.570;2023-08-07T17:54:25;4.88;;;1.10;;
72939;SDS011;61094;51.154;13.570;2023-08-07T17:59:26;3.33;;;1.00;;
72939;SDS011;61094;51.154;13.570;2023-08-07T18:04:29;2.75;;;0.88;;
72939;SDS011;61094;51.154;13.570;2023-08-07T18:09:31;5.82;;;0.88;;
72939;SDS011;61094;51.154;13.570;2023-08-07T18:14:34;4.45;;;1.15;;
72939;SDS011;61094;51.154;13.570;2023-08-07T18:19:37;3.92;;;1.10;;
72939;SDS011;61094;51.154;13.570;2023-08-07T18:24:39;3.63;;;1.10;;
72939;SDS011;61094;51.154;13.570;2023-08-07T18:29:43;7.00;;;0.95;;
72939;SDS011;61094;51.154;13.570;2023-08-07T18:34:47;3.63;;;1.15;;
72939;SDS011;61094;51.154;13.570;2023-08-07T18:39:49;3.13;;;0.80;;
72939;SDS011;61094;51.154;13.570;2023-08-07T18:44:51;2.15;;;0.75;;
72939;SDS011;61094;51.154;13.570;2023-08-07T18:49:54;5.85;;;1.30;;
72939;SDS011;61094;51.154;13.570;2023-08-07T18:54:56;4.80;;;1.05;;
72939;SDS011;61094;51.154;13.570;2023-08-07T18:59:58;4.97;;;1.40;;
72939;SDS011;61094;51.154;13.570;2023-08-07T19:05:01;11.60;;;2.00;;
72939;SDS011;61094;51.154;13.570;2023-08-07T19:10:03;3.83;;;1.00;;
72939;SDS011;61094;51.154;13.570;2023-08-07T19:15:07;4.82;;;1.48;;
72939;SDS011;61094;51.154;13.570;2023-08-07T19:20:14;4.10;;;1.30;;
72939;SDS011;61094;51.154;13.570;2023-08-07T19:25:17;4.10;;;1.27;;
72939;SDS011;61094;51.154;13.570;2023-08-07T19:30:19;3.22;;;1.10;;
72939;SDS011;61094;51.154;13.570;2023-08-07T19:35:22;3.70;;;1.13;;
72939;SDS011;61094;51.154;13.570;2023-08-07T19:40:24;2.75;;;0.90;;
72939;SDS011;61094;51.154;13.570;2023-08-07T19:45:27;10.57;;;3.20;;
72939;SDS011;61094;51.154;13.570;2023-08-07T19:50:30;3.28;;;1.25;;
72939;SDS011;61094;51.154;13.570;2023-08-07T19:55:32;4.40;;;1.10;;
72939;SDS011;61094;51.154;13.570;2023-08-07T20:00:34;4.75;;;1.30;;
72939;SDS011;61094;51.154;13.570;2023-08-07T20:05:37;4.35;;;0.90;;
72939;SDS011;61094;51.154;13.570;2023-08-07T20:10:39;3.20;;;1.02;;
72939;SDS011;61094;51.154;13.570;2023-08-07T20:15:41;5.78;;;1.13;;
72939;SDS011;61094;51.154;13.570;2023-08-07T20:20:44;2.33;;;0.75;;
72939;SDS011;61094;51.154;13.570;2023-08-07T20:25:46;6.78;;;1.17;;
72939;SDS011;61094;51.154;13.570;2023-08-07T20:30:48;8.73;;;1.13;;
72939;SDS011;61094;51.154;13.570;2023-08-07T20:35:51;4.18;;;0.90;;
72939;SDS011;61094;51.154;13.570;2023-08-07T20:40:53;4.60;;;1.10;;
72939;SDS011;61094;51.154;13.570;2023-08-07T20:45:54;5.95;;;1.00;;
72939;SDS011;61094;51.154;13.570;2023-08-07T20:50:57;4.13;;;1.23;;
72939;SDS011;61094;51.154;13.570;2023-08-07T20:55:59;4.70;;;1.10;;
72939;SDS011;61094;51.154;13.570;2023-08-07T21:01:01;7.22;;;0.95;;
72939;SDS011;61094;51.154;13.570;2023-08-07T21:06:04;3.95;;;0.75;;
72939;SDS011;61094;51.154;13.570;2023-08-07T21:11:06;5.47;;;0.95;;
72939;SDS011;61094;51.154;13.570;2023-08-07T21:16:08;2.38;;;0.73;;
72939;SDS011;61094;51.154;13.570;2023-08-07T21:21:12;4.38;;;0.98;;
72939;SDS011;61094;51.154;13.570;2023-08-07T21:26:14;3.58;;;0.85;;
72939;SDS011;61094;51.154;13.570;2023-08-07T21:31:16;6.10;;;1.30;;
72939;SDS011;61094;51.154;13.570;2023-08-07T21:36:20;3.75;;;0.50;;
72939;SDS011;61094;51.154;13.570;2023-08-07T21:41:21;3.05;;;0.80;;
72939;SDS011;61094;51.154;13.570;2023-08-07T21:46:23;4.88;;;1.00;;
72939;SDS011;61094;51.154;13.570;2023-08-07T21:51:26;1.40;;;0.52;;
72939;SDS011;61094;51.154;13.570;2023-08-07T21:56:28;2.03;;;0.80;;
72939;SDS011;61094;51.154;13.570;2023-08-07T22:01:31;5.63;;;1.33;;
72939;SDS011;61094;51.154;13.570;2023-08-07T22:06:34;3.38;;;0.90;;
72939;SDS011;61094;51.154;13.570;2023-08-07T22:11:35;2.60;;;0.95;;
72939;SDS011;61094;51.154;13.570;2023-08-07T22:16:37;3.47;;;1.15;;
72939;SDS011;61094;51.154;13.570;2023-08-07T22:21:40;3.33;;;0.95;;
72939;SDS011;61094;51.154;13.570;2023-08-07T22:26:42;2.97;;;0.90;;
72939;SDS011;61094;51.154;13.570;2023-08-07T22:31:44;4.40;;;0.73;;
72939;SDS011;61094;51.154;13.570;2023-08-07T22:36:47;4.03;;;0.88;;
72939;SDS011;61094;51.154;13.570;2023-08-07T22:41:49;5.38;;;1.02;;
72939;SDS011;61094;51.154;13.570;2023-08-07T22:46:52;6.35;;;1.30;;
72939;SDS011;61094;51.154;13.570;2023-08-07T22:51:57;2.95;;;0.90;;
72939;SDS011;61094;51.154;13.570;2023-08-07T22:56:59;3.80;;;0.98;;
72939;SDS011;61094;51.154;13.570;2023-08-07T23:02:01;4.70;;;1.50;;
72939;SDS011;61094;51.154;13.570;2023-08-07T23:07:04;7.15;;;1.23;;
72939;SDS011;61094;51.154;13.570;2023-08-07T23:12:06;5.15;;;1.35;;
72939;SDS011;61094;51.154;13.570;2023-08-07T23:17:09;3.75;;;1.08;;
72939;SDS011;61094;51.154;13.570;2023-08-07T23:22:12;3.78;;;0.93;;
72939;SDS011;61094;51.154;13.570;2023-08-07T23:27:13;4.10;;;1.10;;
72939;SDS011;61094;51.154;13.570;2023-08-07T23:32:15;1.80;;;0.68;;
72939;SDS011;61094;51.154;13.570;2023-08-07T23:37:18;12.57;;;1.63;;
72939;SDS011;61094;51.154;13.570;2023-08-07T23:42:20;1.58;;;0.60;;
72939;SDS011;61094;51.154;13.570;2023-08-07T23:47:22;4.95;;;1.88;;
72939;SDS011;61094;51.154;13.570;2023-08-07T23:52:25;4.30;;;1.08;;
72939;SDS011;61094;51.154;13.570;2023-08-07T23:57:27;3.63;;;0.88;;
